createdAt,value
2022-12-08T00:02:25.006Z,95235.00
2022-12-08T00:07:26.632Z,95233.22
2022-12-08T00:12:28.207Z,95227.28
2022-12-08T00:17:29.694Z,95216.78
2022-12-08T00:22:31.210Z,95220.63
2022-12-08T00:27:32.689Z,95215.09
2022-12-08T00:32:34.207Z,95205.63
2022-12-08T00:37:35.657Z,95202.88
2022-12-08T00:42:37.407Z,95199.34
2022-12-08T00:47:38.946Z,95196.75
2022-12-08T00:52:40.504Z,95198.31
2022-12-08T00:57:41.962Z,95207.16
2022-12-08T01:02:43.466Z,95193.84
2022-12-08T01:07:44.918Z,95196.44
2022-12-08T01:12:46.400Z,95186.53
2022-12-08T01:17:47.869Z,95196.03
2022-12-08T01:22:49.309Z,95191.97
2022-12-08T01:27:52.366Z,95180.91
2022-12-08T01:32:53.944Z,95185.19
2022-12-08T01:37:55.488Z,95196.44
2022-12-08T01:42:57.005Z,95192.28
2022-12-08T01:48:02.533Z,95184.34
2022-12-08T01:53:13.629Z,95189.25
2022-12-08T01:58:29.931Z,95186.25
2022-12-08T02:03:41.927Z,95172.28
2022-12-08T02:08:43.851Z,95166.66
2022-12-08T02:13:47.756Z,95167.38
2022-12-08T02:24:55.543Z,95157.34
2022-12-08T02:30:12.335Z,95153.72
2022-12-08T02:35:44.853Z,95151.53
2022-12-08T02:40:56.290Z,95140.69
2022-12-08T02:46:11.350Z,95127.34
2022-12-08T02:51:12.863Z,95131.09
2022-12-08T02:56:43.465Z,95124.84
2022-12-08T03:02:17.545Z,95129.44
2022-12-08T03:07:32.020Z,95115.75
2022-12-08T03:12:53.220Z,95114.94
2022-12-08T03:17:59.070Z,95112.34
2022-12-08T03:23:05.887Z,95101.94
2022-12-08T03:28:07.643Z,95104.53
2022-12-08T03:33:17.498Z,95093.78
2022-12-08T03:38:18.988Z,95085.84
2022-12-08T03:43:20.508Z,95081.81
2022-12-08T03:48:21.964Z,95069.00
2022-12-08T03:53:23.430Z,95071.78
2022-12-08T03:58:24.953Z,95070.31
2022-12-08T04:03:26.512Z,95063.63
2022-12-08T04:08:28.193Z,95054.28
2022-12-08T04:13:29.745Z,95051.13
2022-12-08T04:18:32.445Z,95045.53
2022-12-08T04:23:33.888Z,95043.94
2022-12-08T04:28:35.740Z,95042.28
2022-12-08T04:33:37.570Z,95038.75
2022-12-08T04:38:39.076Z,95039.50
2022-12-08T04:43:40.585Z,95040.72
2022-12-08T04:48:42.112Z,95027.91
2022-12-08T04:53:46.662Z,95031.00
2022-12-08T04:58:48.470Z,95033.75
2022-12-08T05:03:49.909Z,95038.66
2022-12-08T05:08:51.432Z,95032.19
2022-12-08T05:13:53.000Z,95028.97
2022-12-08T05:18:54.516Z,95028.63
2022-12-08T05:23:55.984Z,95020.31
2022-12-08T05:28:57.682Z,95026.56
2022-12-08T05:34:02.935Z,95017.19
2022-12-08T05:39:05.019Z,95020.94
2022-12-08T05:44:06.849Z,95026.38
2022-12-08T05:49:08.519Z,95019.06
2022-12-08T05:54:10.699Z,95022.38
2022-12-08T05:59:12.192Z,95019.06
2022-12-08T06:04:13.649Z,95018.97
2022-12-08T06:09:15.088Z,95015.41
2022-12-08T06:14:16.571Z,95022.50
2022-12-08T06:19:18.073Z,95016.56
2022-12-08T06:24:19.583Z,95015.75
2022-12-08T06:29:21.057Z,95021.97
2022-12-08T06:34:22.492Z,95024.72
2022-12-08T06:39:23.904Z,95024.50
2022-12-08T06:44:25.538Z,95029.09
2022-12-08T06:49:26.980Z,95024.00
2022-12-08T06:54:28.573Z,95029.09
2022-12-08T06:59:30.169Z,95045.94
2022-12-08T07:04:31.658Z,95034.69
2022-12-08T07:09:33.149Z,95034.91
2022-12-08T07:14:34.655Z,95039.06
2022-12-08T07:19:36.077Z,95031.19
2022-12-08T07:24:37.496Z,95024.94
2022-12-08T07:29:38.983Z,95028.66
2022-12-08T07:34:40.487Z,95032.13
2022-12-08T07:39:42.019Z,95031.25
2022-12-08T07:44:43.539Z,95035.22
2022-12-08T07:49:45.007Z,95043.75
2022-12-08T07:54:47.299Z,95040.44
2022-12-08T07:59:48.724Z,95027.31
2022-12-08T08:04:50.823Z,95027.97
2022-12-08T08:09:52.348Z,95019.63
2022-12-08T08:14:53.752Z,95025.75
2022-12-08T08:19:55.249Z,95025.34
2022-12-08T08:24:56.740Z,95022.59
2022-12-08T08:29:58.243Z,95018.19
2022-12-08T08:34:59.950Z,95026.81
2022-12-08T08:40:02.013Z,95023.19
2022-12-08T08:45:04.242Z,95018.59
2022-12-08T08:50:06.773Z,95016.94
2022-12-08T08:55:08.888Z,95029.00
2022-12-08T09:00:11.316Z,95020.34
2022-12-08T09:05:12.817Z,95019.69
2022-12-08T09:10:14.582Z,95016.97
2022-12-08T09:15:16.147Z,95018.34
2022-12-08T09:20:17.784Z,95006.59
2022-12-08T09:25:19.219Z,94999.94
2022-12-08T09:30:20.637Z,95007.78
2022-12-08T09:35:22.068Z,95002.19
2022-12-08T09:40:25.842Z,95003.84
2022-12-08T09:45:33.138Z,94991.59
2022-12-08T09:50:56.712Z,94987.56
2022-12-08T09:56:21.688Z,94983.84
2022-12-08T10:01:28.688Z,94981.38
2022-12-08T10:06:39.390Z,94972.97
2022-12-08T10:11:51.285Z,94962.19
2022-12-08T10:16:58.308Z,94944.38
2022-12-08T10:22:00.162Z,94941.91
2022-12-08T10:27:02.328Z,94937.13
2022-12-08T10:32:33.387Z,94931.69
2022-12-08T10:37:35.552Z,94914.00
2022-12-08T10:42:42.633Z,94909.25
2022-12-08T10:48:09.003Z,94897.38
2022-12-08T10:53:13.205Z,94897.81
2022-12-08T10:58:41.031Z,94896.28
2022-12-08T11:03:51.299Z,94878.06
2022-12-08T11:08:58.230Z,94881.50
2022-12-08T11:14:07.033Z,94873.75
2022-12-08T11:19:26.760Z,94860.03
2022-12-08T11:24:31.219Z,94857.53
2022-12-08T11:29:35.664Z,94847.00
2022-12-08T11:34:44.388Z,94840.09
2022-12-08T11:39:50.317Z,94836.56
2022-12-08T11:44:58.778Z,94829.94
2022-12-08T11:50:21.838Z,94834.34
2022-12-08T11:55:36.935Z,94818.91
2022-12-08T12:00:40.439Z,94813.63
2022-12-08T12:06:30.858Z,94820.97
2022-12-08T12:11:53.192Z,94815.56
2022-12-08T12:17:07.300Z,94804.25
2022-12-08T12:22:16.044Z,94803.97
2022-12-08T12:27:28.055Z,94802.06
2022-12-08T12:32:45.481Z,94791.25
2022-12-08T12:37:48.834Z,94791.41
2022-12-08T12:42:56.427Z,94783.25
2022-12-08T12:47:57.850Z,94777.19
2022-12-08T12:53:17.322Z,94774.03
2022-12-08T12:58:29.258Z,94781.19
2022-12-08T13:03:30.832Z,94772.63
2022-12-08T13:08:33.009Z,94780.03
2022-12-08T13:13:35.106Z,94773.19
2022-12-08T13:18:41.943Z,94782.22
2022-12-08T13:24:04.865Z,94786.13
2022-12-08T13:29:16.455Z,94768.84
2022-12-08T13:34:32.891Z,94772.47
2022-12-08T13:39:40.506Z,94772.13
2022-12-08T13:45:19.814Z,94767.06
2022-12-08T13:51:23.590Z,94763.06
2022-12-08T14:01:18.830Z,94774.31
2022-12-08T14:06:49.740Z,94781.84
2022-12-08T14:11:56.517Z,94783.16
2022-12-08T14:17:04.606Z,94782.81
2022-12-08T14:22:11.463Z,94779.25
2022-12-08T14:27:19.081Z,94774.41
2022-12-08T14:32:30.292Z,94779.25
2022-12-08T14:37:43.823Z,94777.00
2022-12-08T14:43:04.870Z,94779.06
2022-12-08T14:48:21.518Z,94775.44
2022-12-08T14:53:23.727Z,94771.22
2022-12-08T14:58:30.131Z,94767.44
2022-12-08T15:03:32.516Z,94774.69
2022-12-08T15:08:50.487Z,94772.91
2022-12-08T15:13:53.375Z,94770.66
2022-12-08T15:19:22.669Z,94767.56
2022-12-08T15:24:27.300Z,94775.84
2022-12-08T15:29:30.053Z,94781.03
2022-12-08T15:34:31.573Z,94776.34
2022-12-08T15:39:35.736Z,94764.97
2022-12-08T15:44:37.208Z,94760.81
2022-12-08T15:49:38.708Z,94764.28
2022-12-08T15:54:40.200Z,94764.13
2022-12-08T15:59:41.653Z,94759.88
2022-12-08T16:10:07.833Z,94749.94
2022-12-08T16:20:58.874Z,94752.03
2022-12-08T16:26:20.462Z,94740.28
2022-12-08T16:31:21.452Z,94729.63
2022-12-08T16:36:24.429Z,94744.44
2022-12-08T16:41:25.968Z,94744.19
2022-12-08T16:46:27.423Z,94743.16
2022-12-08T16:51:28.956Z,94733.91
2022-12-08T16:56:33.177Z,94743.25
2022-12-08T17:01:36.248Z,94742.91
2022-12-08T17:06:37.886Z,94735.66
2022-12-08T17:11:43.305Z,94734.13
2022-12-08T17:16:45.818Z,94738.53
2022-12-08T17:21:47.353Z,94736.88
2022-12-08T17:26:49.113Z,94729.25
2022-12-08T17:31:51.069Z,94731.66
2022-12-08T17:36:52.667Z,94739.22
2022-12-08T17:41:54.192Z,94747.03
2022-12-08T17:46:55.641Z,94745.09
2022-12-08T17:52:02.099Z,94729.72
2022-12-08T17:57:03.901Z,94728.03
2022-12-08T18:02:05.404Z,94718.50
2022-12-08T18:07:06.939Z,94729.13
2022-12-08T18:12:08.476Z,94732.91
2022-12-08T18:17:09.985Z,94723.97
2022-12-08T18:22:11.502Z,94728.59
2022-12-08T18:27:13.368Z,94726.81
2022-12-08T18:32:14.797Z,94713.66
2022-12-08T18:37:16.521Z,94719.41
2022-12-08T18:42:18.159Z,94711.22
2022-12-08T18:47:19.562Z,94699.59
2022-12-08T18:52:28.243Z,94707.78
2022-12-08T18:57:33.180Z,94694.97
2022-12-08T19:02:34.683Z,94692.91
2022-12-08T19:07:36.711Z,94682.03
2022-12-08T19:12:38.185Z,94670.41
2022-12-08T19:17:39.785Z,94678.38
2022-12-08T19:22:41.226Z,94681.50
2022-12-08T19:27:42.653Z,94680.16
2022-12-08T19:32:44.155Z,94669.91
2022-12-08T19:37:46.619Z,94668.84
2022-12-08T19:42:48.140Z,94666.75
2022-12-08T19:47:49.667Z,94677.47
2022-12-08T19:52:51.145Z,94675.81
2022-12-08T19:57:53.566Z,94670.72
2022-12-08T20:02:55.200Z,94677.56
2022-12-08T20:07:56.956Z,94673.66
2022-12-08T20:12:58.463Z,94681.88
2022-12-08T20:17:59.901Z,94673.19
2022-12-08T20:23:01.472Z,94665.78
2022-12-08T20:28:03.063Z,94663.81
2022-12-08T20:33:04.568Z,94677.31
2022-12-08T20:38:06.073Z,94673.56
2022-12-08T20:43:07.494Z,94675.56
2022-12-08T20:48:09.048Z,94652.97
2022-12-08T20:53:10.775Z,94656.41
2022-12-08T20:58:12.564Z,94656.91
2022-12-08T21:03:14.849Z,94653.63
2022-12-08T21:08:17.320Z,94653.88
2022-12-08T21:13:18.867Z,94655.13
2022-12-08T21:18:21.151Z,94650.66
2022-12-08T21:23:22.684Z,94644.72
2022-12-08T21:28:24.142Z,94633.75
2022-12-08T21:33:25.841Z,94640.38
2022-12-08T21:38:27.407Z,94633.88
2022-12-08T21:43:29.778Z,94629.97
2022-12-08T21:48:31.456Z,94619.56
2022-12-08T21:53:33.301Z,94623.13
2022-12-08T21:58:35.035Z,94620.47
2022-12-08T22:03:38.730Z,94607.13
2022-12-08T22:08:45.291Z,94609.31
2022-12-08T22:13:47.004Z,94606.31
2022-12-08T22:18:48.472Z,94612.34
2022-12-08T22:23:50.145Z,94605.56
2022-12-08T22:28:51.660Z,94596.72
2022-12-08T22:33:53.447Z,94585.75
2022-12-08T22:38:55.283Z,94574.66
2022-12-08T22:43:56.950Z,94574.75
2022-12-08T22:48:58.715Z,94574.41
2022-12-08T22:54:00.280Z,94565.28
2022-12-08T22:59:01.939Z,94558.91
2022-12-08T23:04:03.917Z,94555.22
2022-12-08T23:09:06.318Z,94562.47
2022-12-08T23:14:07.902Z,94561.88
2022-12-08T23:19:09.876Z,94555.22
2022-12-08T23:24:11.332Z,94549.94
2022-12-08T23:29:12.872Z,94543.44
2022-12-08T23:34:14.338Z,94550.06
2022-12-08T23:39:16.796Z,94535.88
2022-12-08T23:44:18.232Z,94545.56
2022-12-08T23:49:19.853Z,94541.75
2022-12-08T23:54:21.456Z,94521.66
2022-12-08T23:59:23.051Z,94520.50
